sensor_id;sensor_type;location;lat;lon;timestamp;temperature;humidity
837;DHT22;400;53.550;9.932;2024-01-15T00:00:30;3.70;1.00
837;DHT22;400;53.550;9.932;2024-01-15T00:02:57;3.80;1.00
837;DHT22;400;53.550;9.932;2024-01-15T00:05:24;4.00;1.00
837;DHT22;400;53.550;9.932;2024-01-15T00:07:52;3.80;1.00
837;DHT22;400;53.550;9.932;2024-01-15T00:10:19;3.70;1.00
837;DHT22;400;53.550;9.932;2024-01-15T00:12:46;3.70;1.00
837;DHT22;400;53.550;9.932;2024-01-15T00:15:13;3.80;1.00
837;DHT22;400;53.550;9.932;2024-01-15T00:17:40;3.50;1.00
837;DHT22;400;53.550;9.932;2024-01-15T00:20:07;3.50;1.00
837;DHT22;400;53.550;9.932;2024-01-15T00:22:34;3.60;1.00
837;DHT22;400;53.550;9.932;2024-01-15T00:25:03;3.30;1.00
837;DHT22;400;53.550;9.932;2024-01-15T00:27:30;3.40;9.30
837;DHT22;400;53.550;9.932;2024-01-15T00:29:57;3.30;1.00
837;DHT22;400;53.550;9.932;2024-01-15T00:32:24;3.50;14.70
837;DHT22;400;53.550;9.932;2024-01-15T00:34:50;3.50;4.70
837;DHT22;400;53.550;9.932;2024-01-15T00:37:17;3.60;1.00
837;DHT22;400;53.550;9.932;2024-01-15T00:39:44;3.60;1.00
837;DHT22;400;53.550;9.932;2024-01-15T00:42:12;3.70;1.00
837;DHT22;400;53.550;9.932;2024-01-15T00:44:39;3.60;1.00
837;DHT22;400;53.550;9.932;2024-01-15T00:47:06;3.50;1.00
837;DHT22;400;53.550;9.932;2024-01-15T00:49:33;3.50;1.00
837;DHT22;400;53.550;9.932;2024-01-15T00:52:00;3.60;1.00
837;DHT22;400;53.550;9.932;2024-01-15T00:54:26;3.50;1.00
837;DHT22;400;53.550;9.932;2024-01-15T00:56:56;3.40;1.00
837;DHT22;400;53.550;9.932;2024-01-15T00:59:24;3.30;8.40
837;DHT22;400;53.550;9.932;2024-01-15T01:01:51;3.30;1.00
837;DHT22;400;53.550;9.932;2024-01-15T01:04:17;3.30;2.40
837;DHT22;400;53.550;9.932;2024-01-15T01:06:45;3.30;1.40
837;DHT22;400;53.550;9.932;2024-01-15T01:09:11;3.30;5.00
837;DHT22;400;53.550;9.932;2024-01-15T01:11:38;3.30;1.00
837;DHT22;400;53.550;9.932;2024-01-15T01:14:05;3.30;1.00
837;DHT22;400;53.550;9.932;2024-01-15T01:16:33;3.30;1.00
837;DHT22;400;53.550;9.932;2024-01-15T01:19:04;3.40;1.00
837;DHT22;400;53.550;9.932;2024-01-15T01:21:31;3.50;1.00
837;DHT22;400;53.550;9.932;2024-01-15T01:23:58;3.70;1.00
837;DHT22;400;53.550;9.932;2024-01-15T01:26:25;3.70;1.00
837;DHT22;400;53.550;9.932;2024-01-15T01:28:52;3.80;1.00
837;DHT22;400;53.550;9.932;2024-01-15T01:31:19;3.80;1.00
837;DHT22;400;53.550;9.932;2024-01-15T01:33:47;3.80;1.00
837;DHT22;400;53.550;9.932;2024-01-15T01:36:14;3.60;1.00
837;DHT22;400;53.550;9.932;2024-01-15T01:38:41;3.80;1.00
837;DHT22;400;53.550;9.932;2024-01-15T01:41:08;3.90;1.00
837;DHT22;400;53.550;9.932;2024-01-15T01:43:35;3.80;1.00
837;DHT22;400;53.550;9.932;2024-01-15T01:46:02;3.70;1.00
837;DHT22;400;53.550;9.932;2024-01-15T01:48:30;3.80;1.00
837;DHT22;400;53.550;9.932;2024-01-15T01:51:01;3.80;1.00
837;DHT22;400;53.550;9.932;2024-01-15T01:53:29;3.80;1.00
837;DHT22;400;53.550;9.932;2024-01-15T01:55:58;3.70;1.00
837;DHT22;400;53.550;9.932;2024-01-15T01:58:27;3.80;1.00
837;DHT22;400;53.550;9.932;2024-01-15T02:00:55;3.50;1.00
837;DHT22;400;53.550;9.932;2024-01-15T02:03:22;3.60;1.00
837;DHT22;400;53.550;9.932;2024-01-15T02:05:49;3.60;1.00
837;DHT22;400;53.550;9.932;2024-01-15T02:08:18;3.70;1.00
837;DHT22;400;53.550;9.932;2024-01-15T02:10:44;3.80;1.00
837;DHT22;400;53.550;9.932;2024-01-15T02:13:11;3.80;1.00
837;DHT22;400;53.550;9.932;2024-01-15T02:15:38;3.80;1.00
837;DHT22;400;53.550;9.932;2024-01-15T02:18:06;3.90;1.00
837;DHT22;400;53.550;9.932;2024-01-15T02:20:33;3.70;1.00
837;DHT22;400;53.550;9.932;2024-01-15T02:23:06;3.60;1.00
837;DHT22;400;53.550;9.932;2024-01-15T02:25:34;3.70;1.00
837;DHT22;400;53.550;9.932;2024-01-15T02:28:02;3.60;1.00
837;DHT22;400;53.550;9.932;2024-01-15T02:30:30;3.40;1.00
837;DHT22;400;53.550;9.932;2024-01-15T02:32:58;3.50;1.00
837;DHT22;400;53.550;9.932;2024-01-15T02:35:25;3.50;3.50
837;DHT22;400;53.550;9.932;2024-01-15T02:37:51;3.60;7.40
837;DHT22;400;53.550;9.932;2024-01-15T02:40:19;3.70;10.50
837;DHT22;400;53.550;9.932;2024-01-15T02:42:46;3.80;1.00
837;DHT22;400;53.550;9.932;2024-01-15T02:45:13;3.90;1.00
837;DHT22;400;53.550;9.932;2024-01-15T02:47:40;3.70;1.00
837;DHT22;400;53.550;9.932;2024-01-15T02:50:07;3.60;1.00
837;DHT22;400;53.550;9.932;2024-01-15T02:52:34;3.70;8.50
837;DHT22;400;53.550;9.932;2024-01-15T02:55:01;3.60;1.00
837;DHT22;400;53.550;9.932;2024-01-15T02:57:29;3.60;4.50
837;DHT22;400;53.550;9.932;2024-01-15T02:59:56;3.60;8.30
837;DHT22;400;53.550;9.932;2024-01-15T03:02:23;3.70;18.30
837;DHT22;400;53.550;9.932;2024-01-15T03:04:49;3.70;11.20
837;DHT22;400;53.550;9.932;2024-01-15T03:07:16;3.70;2.40
837;DHT22;400;53.550;9.932;2024-01-15T03:09:43;3.70;9.00
837;DHT22;400;53.550;9.932;2024-01-15T03:12:10;3.70;10.70
837;DHT22;400;53.550;9.932;2024-01-15T03:14:39;3.80;15.00
837;DHT22;400;53.550;9.932;2024-01-15T03:17:06;3.70;1.00
837;DHT22;400;53.550;9.932;2024-01-15T03:19:34;3.80;7.90
837;DHT22;400;53.550;9.932;2024-01-15T03:22:01;3.70;6.90
837;DHT22;400;53.550;9.932;2024-01-15T03:24:29;3.70;2.50
837;DHT22;400;53.550;9.932;2024-01-15T03:26:56;3.70;4.10
837;DHT22;400;53.550;9.932;2024-01-15T03:29:23;3.70;1.00
837;DHT22;400;53.550;9.932;2024-01-15T03:31:51;3.60;1.00
837;DHT22;400;53.550;9.932;2024-01-15T03:34:19;3.50;1.20
837;DHT22;400;53.550;9.932;2024-01-15T03:36:46;3.50;14.70
837;DHT22;400;53.550;9.932;2024-01-15T03:39:16;3.50;16.40
837;DHT22;400;53.550;9.932;2024-01-15T03:41:43;3.30;30.30
837;DHT22;400;53.550;9.932;2024-01-15T03:44:10;3.40;39.90
837;DHT22;400;53.550;9.932;2024-01-15T03:46:37;3.50;36.80
837;DHT22;400;53.550;9.932;2024-01-15T03:49:05;3.40;47.80
837;DHT22;400;53.550;9.932;2024-01-15T03:51:32;3.40;54.00
837;DHT22;400;53.550;9.932;2024-01-15T03:54:01;3.40;56.50
837;DHT22;400;53.550;9.932;2024-01-15T03:56:28;3.40;75.50
837;DHT22;400;53.550;9.932;2024-01-15T03:58:55;3.50;88.10
837;DHT22;400;53.550;9.932;2024-01-15T04:01:22;3.30;76.40
837;DHT22;400;53.550;9.932;2024-01-15T04:03:48;3.40;90.90
837;DHT22;400;53.550;9.932;2024-01-15T04:06:17;3.50;81.70
837;DHT22;400;53.550;9.932;2024-01-15T04:08:43;3.40;58.50
837;DHT22;400;53.550;9.932;2024-01-15T04:11:10;3.50;54.60
837;DHT22;400;53.550;9.932;2024-01-15T04:13:37;3.50;37.70
837;DHT22;400;53.550;9.932;2024-01-15T04:16:04;3.60;44.20
837;DHT22;400;53.550;9.932;2024-01-15T04:18:31;3.60;25.20
837;DHT22;400;53.550;9.932;2024-01-15T04:20:58;3.50;22.10
837;DHT22;400;53.550;9.932;2024-01-15T04:23:26;3.60;19.50
837;DHT22;400;53.550;9.932;2024-01-15T04:25:53;3.60;19.30
837;DHT22;400;53.550;9.932;2024-01-15T04:28:20;3.60;9.40
837;DHT22;400;53.550;9.932;2024-01-15T04:30:47;3.60;5.90
837;DHT22;400;53.550;9.932;2024-01-15T04:33:13;3.60;1.00
837;DHT22;400;53.550;9.932;2024-01-15T04:35:40;3.70;4.90
837;DHT22;400;53.550;9.932;2024-01-15T04:38:09;3.70;4.60
837;DHT22;400;53.550;9.932;2024-01-15T04:40:37;3.80;1.00
837;DHT22;400;53.550;9.932;2024-01-15T04:43:04;3.70;1.00
837;DHT22;400;53.550;9.932;2024-01-15T04:45:30;3.80;1.00
837;DHT22;400;53.550;9.932;2024-01-15T04:47:57;3.80;1.00
837;DHT22;400;53.550;9.932;2024-01-15T04:50:24;3.80;1.00
837;DHT22;400;53.550;9.932;2024-01-15T04:52:51;3.80;1.00
837;DHT22;400;53.550;9.932;2024-01-15T04:55:18;3.80;1.00
837;DHT22;400;53.550;9.932;2024-01-15T04:57:46;3.80;1.00
837;DHT22;400;53.550;9.932;2024-01-15T05:00:14;3.80;1.00
837;DHT22;400;53.550;9.932;2024-01-15T05:02:41;3.90;1.00
837;DHT22;400;53.550;9.932;2024-01-15T05:05:08;3.90;1.00
837;DHT22;400;53.550;9.932;2024-01-15T05:07:35;3.90;1.00
837;DHT22;400;53.550;9.932;2024-01-15T05:10:03;3.80;1.00
837;DHT22;400;53.550;9.932;2024-01-15T05:12:30;3.80;1.00
837;DHT22;400;53.550;9.932;2024-01-15T05:14:58;3.70;1.00
837;DHT22;400;53.550;9.932;2024-01-15T05:17:25;3.80;1.00
837;DHT22;400;53.550;9.932;2024-01-15T05:19:53;3.70;1.00
837;DHT22;400;53.550;9.932;2024-01-15T05:22:22;3.70;1.00
837;DHT22;400;53.550;9.932;2024-01-15T05:24:51;3.70;1.00
837;DHT22;400;53.550;9.932;2024-01-15T05:27:19;3.70;1.00
837;DHT22;400;53.550;9.932;2024-01-15T05:29:46;3.70;1.00
837;DHT22;400;53.550;9.932;2024-01-15T05:32:14;3.70;1.00
837;DHT22;400;53.550;9.932;2024-01-15T05:34:41;3.80;1.00
837;DHT22;400;53.550;9.932;2024-01-15T05:37:07;3.70;1.00
837;DHT22;400;53.550;9.932;2024-01-15T05:39:34;3.70;1.00
837;DHT22;400;53.550;9.932;2024-01-15T05:42:01;3.60;1.00
837;DHT22;400;53.550;9.932;2024-01-15T05:44:28;3.70;1.00
837;DHT22;400;53.550;9.932;2024-01-15T05:46:56;3.70;1.00
837;DHT22;400;53.550;9.932;2024-01-15T05:49:25;3.60;1.00
837;DHT22;400;53.550;9.932;2024-01-15T05:51:52;3.70;1.00
837;DHT22;400;53.550;9.932;2024-01-15T05:54:20;3.70;1.00
837;DHT22;400;53.550;9.932;2024-01-15T05:56:47;3.70;1.00
837;DHT22;400;53.550;9.932;2024-01-15T05:59:14;3.70;1.00
837;DHT22;400;53.550;9.932;2024-01-15T06:01:40;3.60;1.00
837;DHT22;400;53.550;9.932;2024-01-15T06:04:08;3.60;1.00
837;DHT22;400;53.550;9.932;2024-01-15T06:06:38;3.60;1.00
837;DHT22;400;53.550;9.932;2024-01-15T06:09:10;3.60;1.00
837;DHT22;400;53.550;9.932;2024-01-15T06:11:41;3.70;1.00
837;DHT22;400;53.550;9.932;2024-01-15T06:14:10;3.80;1.00
837;DHT22;400;53.550;9.932;2024-01-15T06:16:37;3.80;1.00
837;DHT22;400;53.550;9.932;2024-01-15T06:19:04;3.80;1.00
837;DHT22;400;53.550;9.932;2024-01-15T06:21:31;3.80;1.00
837;DHT22;400;53.550;9.932;2024-01-15T06:23:59;3.80;1.00
837;DHT22;400;53.550;9.932;2024-01-15T06:26:26;3.90;1.00
837;DHT22;400;53.550;9.932;2024-01-15T06:28:52;3.90;1.00
837;DHT22;400;53.550;9.932;2024-01-15T06:31:20;3.90;1.00
837;DHT22;400;53.550;9.932;2024-01-15T06:33:47;3.80;1.00
837;DHT22;400;53.550;9.932;2024-01-15T06:36:16;3.90;1.00
837;DHT22;400;53.550;9.932;2024-01-15T06:38:45;3.90;1.00
837;DHT22;400;53.550;9.932;2024-01-15T06:41:16;3.90;1.00
837;DHT22;400;53.550;9.932;2024-01-15T06:43:46;3.90;1.00
837;DHT22;400;53.550;9.932;2024-01-15T06:46:20;3.80;1.00
837;DHT22;400;53.550;9.932;2024-01-15T06:48:49;3.90;1.00
837;DHT22;400;53.550;9.932;2024-01-15T06:51:18;3.90;1.00
837;DHT22;400;53.550;9.932;2024-01-15T06:53:45;3.90;1.00
837;DHT22;400;53.550;9.932;2024-01-15T06:56:17;3.80;1.00
837;DHT22;400;53.550;9.932;2024-01-15T06:58:44;3.90;1.00
837;DHT22;400;53.550;9.932;2024-01-15T07:01:11;3.80;1.00
837;DHT22;400;53.550;9.932;2024-01-15T07:03:38;3.80;1.00
837;DHT22;400;53.550;9.932;2024-01-15T07:06:07;3.80;1.00
837;DHT22;400;53.550;9.932;2024-01-15T07:08:34;3.80;1.00
837;DHT22;400;53.550;9.932;2024-01-15T07:11:03;3.80;1.00
837;DHT22;400;53.550;9.932;2024-01-15T07:13:32;3.80;1.00
837;DHT22;400;53.550;9.932;2024-01-15T07:15:59;3.80;1.00
837;DHT22;400;53.550;9.932;2024-01-15T07:18:27;3.90;1.00
837;DHT22;400;53.550;9.932;2024-01-15T07:20:56;3.90;1.00
837;DHT22;400;53.550;9.932;2024-01-15T07:23:28;3.80;1.00
837;DHT22;400;53.550;9.932;2024-01-15T07:25:56;3.80;1.00
837;DHT22;400;53.550;9.932;2024-01-15T07:28:24;3.80;1.00
837;DHT22;400;53.550;9.932;2024-01-15T07:30:52;3.80;1.00
837;DHT22;400;53.550;9.932;2024-01-15T07:33:19;3.70;1.00
837;DHT22;400;53.550;9.932;2024-01-15T07:35:47;3.80;1.00
837;DHT22;400;53.550;9.932;2024-01-15T07:38:15;3.80;1.00
837;DHT22;400;53.550;9.932;2024-01-15T07:40:43;3.80;1.00
837;DHT22;400;53.550;9.932;2024-01-15T07:43:14;3.80;1.00
837;DHT22;400;53.550;9.932;2024-01-15T07:45:43;3.80;1.00
837;DHT22;400;53.550;9.932;2024-01-15T07:48:15;3.80;1.00
837;DHT22;400;53.550;9.932;2024-01-15T07:50:43;3.80;1.00
837;DHT22;400;53.550;9.932;2024-01-15T07:53:13;3.70;1.00
837;DHT22;400;53.550;9.932;2024-01-15T07:55:42;3.70;1.00
837;DHT22;400;53.550;9.932;2024-01-15T07:58:11;3.70;1.00
837;DHT22;400;53.550;9.932;2024-01-15T08:00:38;3.70;1.00
837;DHT22;400;53.550;9.932;2024-01-15T08:03:05;3.80;1.00
837;DHT22;400;53.550;9.932;2024-01-15T08:05:33;3.80;1.00
837;DHT22;400;53.550;9.932;2024-01-15T08:08:00;3.80;1.00
837;DHT22;400;53.550;9.932;2024-01-15T08:10:28;3.90;1.00
837;DHT22;400;53.550;9.932;2024-01-15T08:12:54;3.90;1.00
837;DHT22;400;53.550;9.932;2024-01-15T08:15:28;3.90;1.00
837;DHT22;400;53.550;9.932;2024-01-15T08:17:56;3.80;1.00
837;DHT22;400;53.550;9.932;2024-01-15T08:20:24;3.80;1.00
837;DHT22;400;53.550;9.932;2024-01-15T08:22:53;3.70;1.00
837;DHT22;400;53.550;9.932;2024-01-15T08:25:19;3.80;1.00
837;DHT22;400;53.550;9.932;2024-01-15T08:27:48;3.90;1.00
837;DHT22;400;53.550;9.932;2024-01-15T08:30:20;3.80;1.00
837;DHT22;400;53.550;9.932;2024-01-15T08:32:52;3.80;1.00
837;DHT22;400;53.550;9.932;2024-01-15T08:35:24;3.90;1.00
837;DHT22;400;53.550;9.932;2024-01-15T08:37:55;3.90;1.00
837;DHT22;400;53.550;9.932;2024-01-15T08:40:26;3.90;1.00
837;DHT22;400;53.550;9.932;2024-01-15T08:42:54;3.90;1.00
837;DHT22;400;53.550;9.932;2024-01-15T08:45:23;3.90;1.00
837;DHT22;400;53.550;9.932;2024-01-15T08:47:50;3.80;1.00
837;DHT22;400;53.550;9.932;2024-01-15T08:50:17;3.90;1.00
837;DHT22;400;53.550;9.932;2024-01-15T08:52:44;3.80;1.00
837;DHT22;400;53.550;9.932;2024-01-15T08:55:13;3.70;1.00
837;DHT22;400;53.550;9.932;2024-01-15T08:57:40;3.70;1.00
837;DHT22;400;53.550;9.932;2024-01-15T09:00:07;3.80;1.00
837;DHT22;400;53.550;9.932;2024-01-15T09:02:34;3.80;1.00
837;DHT22;400;53.550;9.932;2024-01-15T09:05:02;3.80;1.00
837;DHT22;400;53.550;9.932;2024-01-15T09:07:31;3.80;1.00
837;DHT22;400;53.550;9.932;2024-01-15T09:10:02;3.80;1.00
837;DHT22;400;53.550;9.932;2024-01-15T09:12:31;3.80;1.00
837;DHT22;400;53.550;9.932;2024-01-15T09:14:58;3.90;1.00
837;DHT22;400;53.550;9.932;2024-01-15T09:17:27;4.00;1.00
837;DHT22;400;53.550;9.932;2024-01-15T09:19:57;3.90;1.00
837;DHT22;400;53.550;9.932;2024-01-15T09:22:25;3.90;1.00
837;DHT22;400;53.550;9.932;2024-01-15T09:24:53;4.00;1.00
837;DHT22;400;53.550;9.932;2024-01-15T09:27:22;4.00;1.00
837;DHT22;400;53.550;9.932;2024-01-15T09:29:53;4.10;1.00
837;DHT22;400;53.550;9.932;2024-01-15T09:32:20;4.00;1.00
837;DHT22;400;53.550;9.932;2024-01-15T09:34:47;3.90;1.00
837;DHT22;400;53.550;9.932;2024-01-15T09:37:14;4.00;1.00
837;DHT22;400;53.550;9.932;2024-01-15T09:39:41;4.10;1.00
837;DHT22;400;53.550;9.932;2024-01-15T09:42:10;4.00;1.00
837;DHT22;400;53.550;9.932;2024-01-15T09:44:41;3.80;1.00
837;DHT22;400;53.550;9.932;2024-01-15T09:47:12;3.90;1.00
837;DHT22;400;53.550;9.932;2024-01-15T09:49:39;3.90;1.00
837;DHT22;400;53.550;9.932;2024-01-15T09:52:07;3.90;1.00
837;DHT22;400;53.550;9.932;2024-01-15T09:54:37;3.90;1.00
837;DHT22;400;53.550;9.932;2024-01-15T09:57:07;4.00;1.00
837;DHT22;400;53.550;9.932;2024-01-15T09:59:35;4.00;1.00
837;DHT22;400;53.550;9.932;2024-01-15T10:02:03;4.10;1.00
837;DHT22;400;53.550;9.932;2024-01-15T10:04:34;4.00;1.00
837;DHT22;400;53.550;9.932;2024-01-15T10:07:02;3.90;1.00
837;DHT22;400;53.550;9.932;2024-01-15T10:09:29;3.70;1.00
837;DHT22;400;53.550;9.932;2024-01-15T10:11:57;3.70;1.00
837;DHT22;400;53.550;9.932;2024-01-15T10:14:26;3.50;1.00
837;DHT22;400;53.550;9.932;2024-01-15T10:16:53;3.60;1.00
837;DHT22;400;53.550;9.932;2024-01-15T10:19:20;3.70;1.00
837;DHT22;400;53.550;9.932;2024-01-15T10:21:50;3.50;1.00
837;DHT22;400;53.550;9.932;2024-01-15T10:24:17;3.70;6.60
837;DHT22;400;53.550;9.932;2024-01-15T10:26:44;3.80;1.00
837;DHT22;400;53.550;9.932;2024-01-15T10:29:11;3.70;1.00
837;DHT22;400;53.550;9.932;2024-01-15T10:31:38;3.60;1.00
837;DHT22;400;53.550;9.932;2024-01-15T10:34:12;3.50;1.00
837;DHT22;400;53.550;9.932;2024-01-15T10:36:41;3.60;1.00
837;DHT22;400;53.550;9.932;2024-01-15T10:39:09;3.60;1.00
837;DHT22;400;53.550;9.932;2024-01-15T10:41:37;3.60;1.00
837;DHT22;400;53.550;9.932;2024-01-15T10:44:05;3.50;1.00
837;DHT22;400;53.550;9.932;2024-01-15T10:46:34;3.50;1.00
837;DHT22;400;53.550;9.932;2024-01-15T10:49:01;3.50;1.00
837;DHT22;400;53.550;9.932;2024-01-15T10:51:29;3.50;1.00
837;DHT22;400;53.550;9.932;2024-01-15T10:53:57;3.50;1.00
837;DHT22;400;53.550;9.932;2024-01-15T10:56:30;3.50;1.50
837;DHT22;400;53.550;9.932;2024-01-15T10:58:58;3.50;1.00
837;DHT22;400;53.550;9.932;2024-01-15T11:01:29;3.40;1.70
837;DHT22;400;53.550;9.932;2024-01-15T11:04:03;3.50;17.40
837;DHT22;400;53.550;9.932;2024-01-15T11:06:42;3.60;20.10
837;DHT22;400;53.550;9.932;2024-01-15T11:09:12;3.70;9.10
837;DHT22;400;53.550;9.932;2024-01-15T11:11:44;3.80;10.60
837;DHT22;400;53.550;9.932;2024-01-15T11:14:33;3.70;1.00
837;DHT22;400;53.550;9.932;2024-01-15T11:17:02;3.80;1.00
837;DHT22;400;53.550;9.932;2024-01-15T11:19:38;3.70;1.00
837;DHT22;400;53.550;9.932;2024-01-15T11:22:09;3.50;1.00
837;DHT22;400;53.550;9.932;2024-01-15T11:24:38;3.60;1.60
837;DHT22;400;53.550;9.932;2024-01-15T11:27:07;3.60;1.00
837;DHT22;400;53.550;9.932;2024-01-15T11:29:36;3.60;1.00
837;DHT22;400;53.550;9.932;2024-01-15T11:32:06;3.70;1.00
837;DHT22;400;53.550;9.932;2024-01-15T11:34:56;3.50;1.00
837;DHT22;400;53.550;9.932;2024-01-15T11:37:28;3.40;1.00
837;DHT22;400;53.550;9.932;2024-01-15T11:40:01;3.50;11.90
837;DHT22;400;53.550;9.932;2024-01-15T11:42:40;3.60;9.10
837;DHT22;400;53.550;9.932;2024-01-15T11:45:10;3.40;1.00
837;DHT22;400;53.550;9.932;2024-01-15T11:48:07;3.20;13.80
837;DHT22;400;53.550;9.932;2024-01-15T11:50:35;3.10;24.40
837;DHT22;400;53.550;9.932;2024-01-15T11:53:19;3.20;25.80
837;DHT22;400;53.550;9.932;2024-01-15T11:55:52;3.10;30.90
837;DHT22;400;53.550;9.932;2024-01-15T11:58:30;2.90;39.00
837;DHT22;400;53.550;9.932;2024-01-15T12:01:03;2.90;55.90
837;DHT22;400;53.550;9.932;2024-01-15T12:03:32;2.90;62.90
837;DHT22;400;53.550;9.932;2024-01-15T12:06:00;3.10;84.30
837;DHT22;400;53.550;9.932;2024-01-15T12:08:27;3.10;68.30
837;DHT22;400;53.550;9.932;2024-01-15T12:10:55;3.20;66.90
837;DHT22;400;53.550;9.932;2024-01-15T12:13:27;3.20;58.10
837;DHT22;400;53.550;9.932;2024-01-15T12:15:54;3.10;34.00
837;DHT22;400;53.550;9.932;2024-01-15T12:18:22;3.30;52.90
837;DHT22;400;53.550;9.932;2024-01-15T12:20:50;3.30;27.70
837;DHT22;400;53.550;9.932;2024-01-15T12:23:21;3.30;21.30
837;DHT22;400;53.550;9.932;2024-01-15T12:25:49;3.30;5.80
837;DHT22;400;53.550;9.932;2024-01-15T12:28:17;3.30;13.10
837;DHT22;400;53.550;9.932;2024-01-15T12:30:47;3.20;14.10
837;DHT22;400;53.550;9.932;2024-01-15T12:33:17;3.20;26.70
837;DHT22;400;53.550;9.932;2024-01-15T12:35:45;3.10;24.10
837;DHT22;400;53.550;9.932;2024-01-15T12:38:11;3.10;34.40
837;DHT22;400;53.550;9.932;2024-01-15T12:40:39;3.00;39.20
837;DHT22;400;53.550;9.932;2024-01-15T12:43:06;3.10;59.20
837;DHT22;400;53.550;9.932;2024-01-15T12:45:33;3.30;76.50
837;DHT22;400;53.550;9.932;2024-01-15T12:48:03;3.40;74.00
837;DHT22;400;53.550;9.932;2024-01-15T12:50:33;3.50;52.60
837;DHT22;400;53.550;9.932;2024-01-15T12:53:02;3.40;19.90
837;DHT22;400;53.550;9.932;2024-01-15T12:55:32;3.50;26.10
837;DHT22;400;53.550;9.932;2024-01-15T12:58:03;3.40;24.60
837;DHT22;400;53.550;9.932;2024-01-15T13:00:32;3.40;25.40
837;DHT22;400;53.550;9.932;2024-01-15T13:02:59;3.40;22.00
837;DHT22;400;53.550;9.932;2024-01-15T13:05:31;3.40;18.70
837;DHT22;400;53.550;9.932;2024-01-15T13:08:00;3.50;24.90
837;DHT22;400;53.550;9.932;2024-01-15T13:10:31;3.50;12.00
837;DHT22;400;53.550;9.932;2024-01-15T13:13:01;3.60;9.30
837;DHT22;400;53.550;9.932;2024-01-15T13:15:32;3.60;1.10
837;DHT22;400;53.550;9.932;2024-01-15T13:18:03;3.50;1.00
837;DHT22;400;53.550;9.932;2024-01-15T13:20:33;3.60;6.40
837;DHT22;400;53.550;9.932;2024-01-15T13:23:01;3.60;1.00
837;DHT22;400;53.550;9.932;2024-01-15T13:25:30;3.70;2.80
837;DHT22;400;53.550;9.932;2024-01-15T13:27:57;3.70;1.70
837;DHT22;400;53.550;9.932;2024-01-15T13:30:24;3.40;1.00
837;DHT22;400;53.550;9.932;2024-01-15T13:32:51;3.40;10.10
837;DHT22;400;53.550;9.932;2024-01-15T13:35:19;3.50;10.50
837;DHT22;400;53.550;9.932;2024-01-15T13:37:47;3.60;13.10
837;DHT22;400;53.550;9.932;2024-01-15T13:40:15;3.50;1.00
837;DHT22;400;53.550;9.932;2024-01-15T13:42:45;3.50;1.50
837;DHT22;400;53.550;9.932;2024-01-15T13:45:13;3.50;1.00
837;DHT22;400;53.550;9.932;2024-01-15T13:47:41;3.50;2.20
837;DHT22;400;53.550;9.932;2024-01-15T13:50:10;3.50;7.10
837;DHT22;400;53.550;9.932;2024-01-15T13:52:38;3.60;8.30
837;DHT22;400;53.550;9.932;2024-01-15T13:55:08;3.70;1.00
837;DHT22;400;53.550;9.932;2024-01-15T13:57:35;3.70;1.00
837;DHT22;400;53.550;9.932;2024-01-15T14:00:02;3.60;1.00
837;DHT22;400;53.550;9.932;2024-01-15T14:02:35;3.60;1.00
837;DHT22;400;53.550;9.932;2024-01-15T14:05:02;3.60;1.00
837;DHT22;400;53.550;9.932;2024-01-15T14:07:29;3.80;1.00
837;DHT22;400;53.550;9.932;2024-01-15T14:09:56;3.80;1.00
837;DHT22;400;53.550;9.932;2024-01-15T14:12:24;3.60;1.00
837;DHT22;400;53.550;9.932;2024-01-15T14:14:52;3.60;1.00
837;DHT22;400;53.550;9.932;2024-01-15T14:17:19;3.40;1.00
837;DHT22;400;53.550;9.932;2024-01-15T14:19:46;3.40;1.00
837;DHT22;400;53.550;9.932;2024-01-15T14:22:13;3.40;1.00
837;DHT22;400;53.550;9.932;2024-01-15T14:24:39;3.60;1.00
837;DHT22;400;53.550;9.932;2024-01-15T14:27:06;3.60;1.00
837;DHT22;400;53.550;9.932;2024-01-15T14:29:35;3.70;1.00
837;DHT22;400;53.550;9.932;2024-01-15T14:32:03;3.70;1.00
837;DHT22;400;53.550;9.932;2024-01-15T14:34:30;3.80;1.00
837;DHT22;400;53.550;9.932;2024-01-15T14:36:57;3.60;1.00
837;DHT22;400;53.550;9.932;2024-01-15T14:39:24;3.70;1.00
837;DHT22;400;53.550;9.932;2024-01-15T14:41:53;3.50;1.00
837;DHT22;400;53.550;9.932;2024-01-15T14:44:20;3.60;1.00
837;DHT22;400;53.550;9.932;2024-01-15T14:46:51;3.60;1.00
837;DHT22;400;53.550;9.932;2024-01-15T14:49:23;3.70;1.00
837;DHT22;400;53.550;9.932;2024-01-15T14:51:53;3.60;1.00
837;DHT22;400;53.550;9.932;2024-01-15T14:54:22;3.50;1.00
837;DHT22;400;53.550;9.932;2024-01-15T14:56:50;3.40;1.00
837;DHT22;400;53.550;9.932;2024-01-15T14:59:17;3.50;1.00
837;DHT22;400;53.550;9.932;2024-01-15T15:01:44;3.30;1.00
837;DHT22;400;53.550;9.932;2024-01-15T15:04:15;3.30;1.00
837;DHT22;400;53.550;9.932;2024-01-15T15:06:46;3.30;1.00
837;DHT22;400;53.550;9.932;2024-01-15T15:09:17;3.40;1.00
837;DHT22;400;53.550;9.932;2024-01-15T15:11:47;3.50;1.00
837;DHT22;400;53.550;9.932;2024-01-15T15:14:14;3.50;1.00
837;DHT22;400;53.550;9.932;2024-01-15T15:16:41;3.60;1.00
837;DHT22;400;53.550;9.932;2024-01-15T15:19:08;3.30;1.00
837;DHT22;400;53.550;9.932;2024-01-15T15:21:38;3.40;1.00
837;DHT22;400;53.550;9.932;2024-01-15T15:24:05;3.50;1.00
837;DHT22;400;53.550;9.932;2024-01-15T15:26:32;3.60;1.00
837;DHT22;400;53.550;9.932;2024-01-15T15:28:59;3.50;1.00
837;DHT22;400;53.550;9.932;2024-01-15T15:31:27;3.50;1.00
837;DHT22;400;53.550;9.932;2024-01-15T15:33:55;3.40;1.00
837;DHT22;400;53.550;9.932;2024-01-15T15:36:31;3.20;1.00
837;DHT22;400;53.550;9.932;2024-01-15T15:39:11;3.20;1.00
837;DHT22;400;53.550;9.932;2024-01-15T15:41:41;3.20;1.00
837;DHT22;400;53.550;9.932;2024-01-15T15:44:08;3.30;1.00
837;DHT22;400;53.550;9.932;2024-01-15T15:46:35;3.30;1.00
837;DHT22;400;53.550;9.932;2024-01-15T15:49:02;3.30;1.00
837;DHT22;400;53.550;9.932;2024-01-15T15:51:32;3.30;1.00
837;DHT22;400;53.550;9.932;2024-01-15T15:54:08;3.10;1.00
837;DHT22;400;53.550;9.932;2024-01-15T15:56:39;3.00;1.00
837;DHT22;400;53.550;9.932;2024-01-15T15:59:16;2.90;1.00
837;DHT22;400;53.550;9.932;2024-01-15T16:01:44;2.80;1.00
837;DHT22;400;53.550;9.932;2024-01-15T16:04:13;2.80;10.00
837;DHT22;400;53.550;9.932;2024-01-15T16:06:45;2.80;11.30
837;DHT22;400;53.550;9.932;2024-01-15T16:09:18;2.90;9.80
837;DHT22;400;53.550;9.932;2024-01-15T16:11:48;2.90;17.00
837;DHT22;400;53.550;9.932;2024-01-15T16:14:16;2.90;13.80
837;DHT22;400;53.550;9.932;2024-01-15T16:16:44;2.80;6.40
837;DHT22;400;53.550;9.932;2024-01-15T16:19:11;2.80;5.50
837;DHT22;400;53.550;9.932;2024-01-15T16:21:38;2.90;12.50
837;DHT22;400;53.550;9.932;2024-01-15T16:24:05;2.80;4.10
837;DHT22;400;53.550;9.932;2024-01-15T16:26:34;2.90;12.60
837;DHT22;400;53.550;9.932;2024-01-15T16:29:03;3.10;20.30
837;DHT22;400;53.550;9.932;2024-01-15T16:31:29;3.20;17.50
837;DHT22;400;53.550;9.932;2024-01-15T16:33:57;3.30;1.00
837;DHT22;400;53.550;9.932;2024-01-15T16:36:24;3.30;1.00
837;DHT22;400;53.550;9.932;2024-01-15T16:38:51;3.40;1.00
837;DHT22;400;53.550;9.932;2024-01-15T16:41:19;3.30;1.00
837;DHT22;400;53.550;9.932;2024-01-15T16:43:49;3.40;1.00
837;DHT22;400;53.550;9.932;2024-01-15T16:46:18;3.50;1.00
837;DHT22;400;53.550;9.932;2024-01-15T16:48:45;3.40;1.00
837;DHT22;400;53.550;9.932;2024-01-15T16:51:13;3.40;1.00
837;DHT22;400;53.550;9.932;2024-01-15T16:53:43;3.40;1.00
837;DHT22;400;53.550;9.932;2024-01-15T16:56:10;3.40;1.00
837;DHT22;400;53.550;9.932;2024-01-15T16:58:37;3.30;1.00
837;DHT22;400;53.550;9.932;2024-01-15T17:01:08;3.30;1.00
837;DHT22;400;53.550;9.932;2024-01-15T17:03:35;3.30;1.00
837;DHT22;400;53.550;9.932;2024-01-15T17:06:01;3.10;1.00
837;DHT22;400;53.550;9.932;2024-01-15T17:08:28;2.80;1.00
837;DHT22;400;53.550;9.932;2024-01-15T17:10:56;2.80;1.00
837;DHT22;400;53.550;9.932;2024-01-15T17:13:23;2.90;1.00